sensor_id;sensor_type;location;lat;lon;timestamp;pressure;altitude;pressure_sealevel;temperature;humidity
31239;BME280;17871;31.584;74.450;2023-07-13T00:01:16;97371.81;;;29.91;99.08
31239;BME280;17871;31.584;74.450;2023-07-13T00:03:47;97373.41;;;29.82;98.46
31239;BME280;17871;31.584;74.450;2023-07-13T00:06:17;97374.31;;;29.62;99.26
31239;BME280;17871;31.584;74.450;2023-07-13T00:08:48;97375.34;;;29.80;99.07
31239;BME280;17871;31.584;74.450;2023-07-13T00:11:17;97371.38;;;29.86;99.75
31239;BME280;17871;31.584;74.450;2023-07-13T00:13:46;97379.56;;;29.83;99.62
31239;BME280;17871;31.584;74.450;2023-07-13T00:16:15;97382.44;;;29.80;98.96
31239;BME280;17871;31.584;74.450;2023-07-13T00:18:44;97387.03;;;29.88;100.00
31239;BME280;17871;31.584;74.450;2023-07-13T00:21:13;97382.03;;;29.84;99.60
31239;BME280;17871;31.584;74.450;2023-07-13T00:23:42;97386.78;;;29.91;98.92
31239;BME280;17871;31.584;74.450;2023-07-13T00:26:12;97388.31;;;29.83;99.71
31239;BME280;17871;31.584;74.450;2023-07-13T00:28:41;97385.53;;;29.85;100.00
31239;BME280;17871;31.584;74.450;2023-07-13T00:31:11;97378.09;;;30.00;99.95
31239;BME280;17871;31.584;74.450;2023-07-13T00:33:43;97381.28;;;30.03;99.35
31239;BME280;17871;31.584;74.450;2023-07-13T00:36:12;97392.38;;;30.07;98.87
31239;BME280;17871;31.584;74.450;2023-07-13T00:38:41;97398.03;;;29.93;100.00
31239;BME280;17871;31.584;74.450;2023-07-13T00:41:10;97400.69;;;30.02;99.65
31239;BME280;17871;31.584;74.450;2023-07-13T00:43:40;97400.69;;;30.02;100.00
31239;BME280;17871;31.584;74.450;2023-07-13T00:46:22;97401.00;;;30.09;99.33
31239;BME280;17871;31.584;74.450;2023-07-13T00:48:53;97408.47;;;30.13;99.61
31239;BME280;17871;31.584;74.450;2023-07-13T00:51:34;97404.22;;;30.22;100.00
31239;BME280;17871;31.584;74.450;2023-07-13T00:54:08;97398.78;;;30.23;100.00
31239;BME280;17871;31.584;74.450;2023-07-13T00:56:40;97407.22;;;30.08;100.00
31239;BME280;17871;31.584;74.450;2023-07-13T00:59:12;97399.03;;;30.01;100.00
31239;BME280;17871;31.584;74.450;2023-07-13T01:01:42;97401.28;;;30.15;99.57
31239;BME280;17871;31.584;74.450;2023-07-13T01:04:10;97389.91;;;30.15;100.00
31239;BME280;17871;31.584;74.450;2023-07-13T01:06:41;97397.72;;;30.26;100.00
31239;BME280;17871;31.584;74.450;2023-07-13T01:09:13;97396.56;;;30.09;99.02
31239;BME280;17871;31.584;74.450;2023-07-13T01:11:42;97392.72;;;30.23;99.64
31239;BME280;17871;31.584;74.450;2023-07-13T01:14:13;97402.44;;;30.32;99.16
31239;BME280;17871;31.584;74.450;2023-07-13T01:16:45;97405.75;;;30.34;98.24
31239;BME280;17871;31.584;74.450;2023-07-13T01:19:45;97396.94;;;30.45;98.69
31239;BME280;17871;31.584;74.450;2023-07-13T01:22:17;97405.97;;;30.42;98.89
31239;BME280;17871;31.584;74.450;2023-07-13T01:24:48;97401.94;;;30.48;98.25
31239;BME280;17871;31.584;74.450;2023-07-13T01:27:21;97411.09;;;30.53;98.64
31239;BME280;17871;31.584;74.450;2023-07-13T01:29:53;97404.47;;;30.59;98.15
31239;BME280;17871;31.584;74.450;2023-07-13T01:32:34;97413.91;;;30.61;98.12
31239;BME280;17871;31.584;74.450;2023-07-13T01:35:05;97416.09;;;30.56;97.60
31239;BME280;17871;31.584;74.450;2023-07-13T01:37:34;97420.56;;;30.56;98.37
31239;BME280;17871;31.584;74.450;2023-07-13T01:40:05;97423.22;;;30.65;98.03
31239;BME280;17871;31.584;74.450;2023-07-13T01:42:34;97418.34;;;30.70;97.03
31239;BME280;17871;31.584;74.450;2023-07-13T01:45:03;97429.44;;;30.64;95.15
31239;BME280;17871;31.584;74.450;2023-07-13T01:47:32;97419.56;;;30.66;95.18
31239;BME280;17871;31.584;74.450;2023-07-13T01:50:01;97420.00;;;30.71;95.29
31239;BME280;17871;31.584;74.450;2023-07-13T01:52:30;97431.13;;;30.75;95.07
31239;BME280;17871;31.584;74.450;2023-07-13T01:54:59;97436.97;;;30.78;95.44
31239;BME280;17871;31.584;74.450;2023-07-13T01:57:28;97444.88;;;30.78;94.33
31239;BME280;17871;31.584;74.450;2023-07-13T01:59:57;97448.38;;;30.88;92.84
31239;BME280;17871;31.584;74.450;2023-07-13T02:02:26;97444.34;;;31.04;93.08
31239;BME280;17871;31.584;74.450;2023-07-13T02:04:55;97447.28;;;31.01;91.78
31239;BME280;17871;31.584;74.450;2023-07-13T02:07:24;97453.13;;;31.04;91.23
31239;BME280;17871;31.584;74.450;2023-07-13T02:09:53;97452.81;;;31.17;92.35
31239;BME280;17871;31.584;74.450;2023-07-13T02:12:22;97454.63;;;31.07;91.62
31239;BME280;17871;31.584;74.450;2023-07-13T02:14:51;97460.16;;;31.32;92.09
31239;BME280;17871;31.584;74.450;2023-07-13T02:17:19;97461.41;;;31.48;92.38
31239;BME280;17871;31.584;74.450;2023-07-13T02:19:48;97458.06;;;31.46;90.93
31239;BME280;17871;31.584;74.450;2023-07-13T02:22:17;97469.75;;;31.53;90.53
31239;BME280;17871;31.584;74.450;2023-07-13T02:24:46;97467.00;;;31.54;90.44
31239;BME280;17871;31.584;74.450;2023-07-13T02:27:18;97473.09;;;31.64;90.37
31239;BME280;17871;31.584;74.450;2023-07-13T02:29:49;97475.53;;;31.75;90.74
31239;BME280;17871;31.584;74.450;2023-07-13T02:32:21;97477.50;;;31.73;89.20
31239;BME280;17871;31.584;74.450;2023-07-13T02:34:51;97478.03;;;31.86;89.63
31239;BME280;17871;31.584;74.450;2023-07-13T02:37:21;97483.59;;;31.83;89.40
31239;BME280;17871;31.584;74.450;2023-07-13T02:39:50;97484.69;;;31.91;88.89
31239;BME280;17871;31.584;74.450;2023-07-13T02:42:19;97473.25;;;32.00;88.77
31239;BME280;17871;31.584;74.450;2023-07-13T02:44:48;97494.44;;;31.90;89.11
31239;BME280;17871;31.584;74.450;2023-07-13T02:47:19;97491.47;;;32.12;88.22
31239;BME280;17871;31.584;74.450;2023-07-13T02:49:48;97495.78;;;32.04;87.24
31239;BME280;17871;31.584;74.450;2023-07-13T02:52:17;97495.50;;;32.16;87.10
31239;BME280;17871;31.584;74.450;2023-07-13T02:54:46;97494.06;;;32.22;86.80
31239;BME280;17871;31.584;74.450;2023-07-13T02:57:15;97506.53;;;32.39;86.59
31239;BME280;17871;31.584;74.450;2023-07-13T02:59:44;97500.94;;;32.42;86.45
31239;BME280;17871;31.584;74.450;2023-07-13T03:02:13;97504.59;;;32.31;85.99
31239;BME280;17871;31.584;74.450;2023-07-13T03:04:42;97509.16;;;32.39;85.07
31239;BME280;17871;31.584;74.450;2023-07-13T03:07:11;97509.34;;;32.28;84.88
31239;BME280;17871;31.584;74.450;2023-07-13T03:09:42;97516.81;;;32.05;84.76
31239;BME280;17871;31.584;74.450;2023-07-13T03:12:11;97514.50;;;32.29;85.28
31239;BME280;17871;31.584;74.450;2023-07-13T03:14:39;97516.94;;;32.50;85.34
31239;BME280;17871;31.584;74.450;2023-07-13T03:17:08;97515.69;;;32.45;85.23
31239;BME280;17871;31.584;74.450;2023-07-13T03:19:40;97526.44;;;32.70;85.31
31239;BME280;17871;31.584;74.450;2023-07-13T03:22:09;97519.97;;;32.82;85.39
31239;BME280;17871;31.584;74.450;2023-07-13T03:24:40;97525.94;;;32.84;86.04
31239;BME280;17871;31.584;74.450;2023-07-13T03:27:09;97531.56;;;32.99;86.46
31239;BME280;17871;31.584;74.450;2023-07-13T03:29:41;97537.59;;;32.92;85.20
31239;BME280;17871;31.584;74.450;2023-07-13T03:32:10;97531.09;;;32.86;83.79
31239;BME280;17871;31.584;74.450;2023-07-13T03:34:39;97535.91;;;33.18;85.37
31239;BME280;17871;31.584;74.450;2023-07-13T03:37:09;97533.22;;;33.00;84.51
31239;BME280;17871;31.584;74.450;2023-07-13T03:39:38;97536.44;;;33.21;84.70
31239;BME280;17871;31.584;74.450;2023-07-13T03:42:07;97539.22;;;33.20;84.11
31239;BME280;17871;31.584;74.450;2023-07-13T03:44:38;97542.09;;;33.09;85.02
31239;BME280;17871;31.584;74.450;2023-07-13T03:47:07;97542.88;;;33.19;83.77
31239;BME280;17871;31.584;74.450;2023-07-13T03:49:37;97542.19;;;33.34;84.20
31239;BME280;17871;31.584;74.450;2023-07-13T03:52:06;97547.06;;;33.39;84.18
31239;BME280;17871;31.584;74.450;2023-07-13T03:54:35;97550.50;;;33.57;84.56
31239;BME280;17871;31.584;74.450;2023-07-13T03:57:05;97536.00;;;33.61;83.01
31239;BME280;17871;31.584;74.450;2023-07-13T03:59:36;97550.63;;;33.65;83.64
31239;BME280;17871;31.584;74.450;2023-07-13T04:02:08;97549.13;;;33.88;82.58
31239;BME280;17871;31.584;74.450;2023-07-13T04:04:37;97551.19;;;33.59;82.18
31239;BME280;17871;31.584;74.450;2023-07-13T04:07:09;97553.00;;;33.76;80.54
31239;BME280;17871;31.584;74.450;2023-07-13T04:09:39;97555.94;;;33.91;82.65
31239;BME280;17871;31.584;74.450;2023-07-13T04:12:10;97546.72;;;34.21;81.34
31239;BME280;17871;31.584;74.450;2023-07-13T04:14:39;97556.56;;;34.11;81.76
31239;BME280;17871;31.584;74.450;2023-07-13T04:17:08;97554.19;;;34.25;80.84
31239;BME280;17871;31.584;74.450;2023-07-13T04:19:37;97554.78;;;34.45;80.83
31239;BME280;17871;31.584;74.450;2023-07-13T04:22:06;97551.84;;;34.56;80.14
31239;BME280;17871;31.584;74.450;2023-07-13T04:24:35;97550.44;;;34.36;79.69
31239;BME280;17871;31.584;74.450;2023-07-13T04:27:04;97553.22;;;34.60;80.15
31239;BME280;17871;31.584;74.450;2023-07-13T04:29:34;97548.28;;;34.65;79.55
31239;BME280;17871;31.584;74.450;2023-07-13T04:32:04;97550.03;;;34.90;80.03
31239;BME280;17871;31.584;74.450;2023-07-13T04:34:34;97554.31;;;34.83;78.60
31239;BME280;17871;31.584;74.450;2023-07-13T04:37:03;97546.03;;;34.86;78.46
31239;BME280;17871;31.584;74.450;2023-07-13T04:39:33;97556.66;;;34.95;81.03
31239;BME280;17871;31.584;74.450;2023-07-13T04:42:03;97559.97;;;34.88;80.32
31239;BME280;17871;31.584;74.450;2023-07-13T04:44:32;97557.41;;;35.21;77.81
31239;BME280;17871;31.584;74.450;2023-07-13T04:47:01;97560.78;;;35.39;78.39
31239;BME280;17871;31.584;74.450;2023-07-13T04:49:30;97570.72;;;35.37;78.74
31239;BME280;17871;31.584;74.450;2023-07-13T04:51:59;97567.09;;;35.38;78.86
31239;BME280;17871;31.584;74.450;2023-07-13T04:54:27;97571.09;;;35.58;78.18
31239;BME280;17871;31.584;74.450;2023-07-13T04:56:56;97577.75;;;35.70;76.54
31239;BME280;17871;31.584;74.450;2023-07-13T04:59:26;97575.56;;;35.58;77.36
31239;BME280;17871;31.584;74.450;2023-07-13T05:01:55;97574.94;;;35.80;76.30
31239;BME280;17871;31.584;74.450;2023-07-13T05:04:25;97566.28;;;35.94;74.68
31239;BME280;17871;31.584;74.450;2023-07-13T05:06:54;97569.13;;;35.60;75.99
31239;BME280;17871;31.584;74.450;2023-07-13T05:09:23;97569.75;;;35.38;77.98
31239;BME280;17871;31.584;74.450;2023-07-13T05:11:54;97574.44;;;35.60;79.65
31239;BME280;17871;31.584;74.450;2023-07-13T05:14:32;97576.25;;;35.52;77.75
31239;BME280;17871;31.584;74.450;2023-07-13T05:17:02;97576.72;;;35.39;78.94
31239;BME280;17871;31.584;74.450;2023-07-13T05:19:31;97570.56;;;35.38;79.02
31239;BME280;17871;31.584;74.450;2023-07-13T05:22:00;97572.75;;;35.27;77.36
31239;BME280;17871;31.584;74.450;2023-07-13T05:24:29;97577.28;;;35.75;77.03
31239;BME280;17871;31.584;74.450;2023-07-13T05:26:58;97579.75;;;35.60;77.56
31239;BME280;17871;31.584;74.450;2023-07-13T05:29:27;97579.88;;;35.34;78.42
31239;BME280;17871;31.584;74.450;2023-07-13T05:31:56;97576.88;;;35.37;78.66
31239;BME280;17871;31.584;74.450;2023-07-13T05:34:25;97583.03;;;35.54;78.43
31239;BME280;17871;31.584;74.450;2023-07-13T05:36:56;97582.44;;;35.84;77.42
31239;BME280;17871;31.584;74.450;2023-07-13T05:39:28;97582.91;;;36.20;76.33
31239;BME280;17871;31.584;74.450;2023-07-13T05:41:57;97591.19;;;36.41;76.60
31239;BME280;17871;31.584;74.450;2023-07-13T05:44:28;97582.06;;;36.83;75.43
31239;BME280;17871;31.584;74.450;2023-07-13T05:47:00;97588.50;;;36.50;74.00
31239;BME280;17871;31.584;74.450;2023-07-13T05:49:29;97584.69;;;36.44;69.91
31239;BME280;17871;31.584;74.450;2023-07-13T05:51:59;97581.69;;;36.47;71.81
31239;BME280;17871;31.584;74.450;2023-07-13T05:54:27;97588.25;;;36.83;72.05
31239;BME280;17871;31.584;74.450;2023-07-13T05:56:57;97589.22;;;36.90;72.25
31239;BME280;17871;31.584;74.450;2023-07-13T05:59:29;97587.66;;;36.96;71.15
31239;BME280;17871;31.584;74.450;2023-07-13T06:02:00;97589.44;;;36.73;70.70
31239;BME280;17871;31.584;74.450;2023-07-13T06:04:35;97585.94;;;36.72;71.33
31239;BME280;17871;31.584;74.450;2023-07-13T06:07:09;97596.56;;;36.80;71.83
31239;BME280;17871;31.584;74.450;2023-07-13T06:09:43;97592.56;;;36.84;71.97
31239;BME280;17871;31.584;74.450;2023-07-13T06:12:17;97581.78;;;36.78;73.14
31239;BME280;17871;31.584;74.450;2023-07-13T06:14:50;97591.31;;;36.64;72.14
31239;BME280;17871;31.584;74.450;2023-07-13T06:17:22;97584.03;;;36.58;71.90
31239;BME280;17871;31.584;74.450;2023-07-13T06:19:52;97577.16;;;36.72;73.30
31239;BME280;17871;31.584;74.450;2023-07-13T06:22:20;97579.06;;;36.86;72.54
31239;BME280;17871;31.584;74.450;2023-07-13T06:24:49;97582.41;;;37.19;71.09
31239;BME280;17871;31.584;74.450;2023-07-13T06:27:18;97581.16;;;37.37;72.39
31239;BME280;17871;31.584;74.450;2023-07-13T06:29:47;97578.03;;;37.26;71.57
31239;BME280;17871;31.584;74.450;2023-07-13T06:32:16;97579.41;;;37.22;71.11
31239;BME280;17871;31.584;74.450;2023-07-13T06:34:45;97580.50;;;36.97;71.48
31239;BME280;17871;31.584;74.450;2023-07-13T06:37:15;97572.91;;;36.85;72.91
31239;BME280;17871;31.584;74.450;2023-07-13T06:39:44;97578.47;;;37.15;72.51
31239;BME280;17871;31.584;74.450;2023-07-13T06:42:16;97582.41;;;36.80;73.37
31239;BME280;17871;31.584;74.450;2023-07-13T06:44:46;97585.31;;;36.62;73.16
31239;BME280;17871;31.584;74.450;2023-07-13T06:47:16;97583.34;;;37.03;72.38
31239;BME280;17871;31.584;74.450;2023-07-13T06:49:45;97584.13;;;37.12;72.75
31239;BME280;17871;31.584;74.450;2023-07-13T06:52:15;97588.34;;;37.29;70.76
31239;BME280;17871;31.584;74.450;2023-07-13T06:54:43;97584.56;;;37.54;70.15
31239;BME280;17871;31.584;74.450;2023-07-13T06:57:17;97581.16;;;37.83;69.28
31239;BME280;17871;31.584;74.450;2023-07-13T06:59:52;97580.25;;;37.68;68.57
31239;BME280;17871;31.584;74.450;2023-07-13T07:02:22;97574.81;;;37.84;69.46
31239;BME280;17871;31.584;74.450;2023-07-13T07:04:50;97576.91;;;37.74;70.71
31239;BME280;17871;31.584;74.450;2023-07-13T07:07:20;97571.00;;;38.01;69.20
31239;BME280;17871;31.584;74.450;2023-07-13T07:09:52;97572.41;;;37.97;69.21
31239;BME280;17871;31.584;74.450;2023-07-13T07:12:21;97564.38;;;37.74;68.83
31239;BME280;17871;31.584;74.450;2023-07-13T07:14:54;97565.91;;;38.29;68.18
31239;BME280;17871;31.584;74.450;2023-07-13T07:17:26;97567.19;;;37.58;67.80
31239;BME280;17871;31.584;74.450;2023-07-13T07:19:56;97560.69;;;37.30;69.24
31239;BME280;17871;31.584;74.450;2023-07-13T07:22:26;97549.59;;;37.49;70.00
31239;BME280;17871;31.584;74.450;2023-07-13T07:25:00;97556.72;;;37.71;67.91
31239;BME280;17871;31.584;74.450;2023-07-13T07:27:35;97565.19;;;37.98;70.59
31239;BME280;17871;31.584;74.450;2023-07-13T07:30:08;97562.19;;;38.15;67.83
31239;BME280;17871;31.584;74.450;2023-07-13T07:32:41;97560.91;;;38.11;66.79
31239;BME280;17871;31.584;74.450;2023-07-13T07:35:26;97559.69;;;38.14;66.96
31239;BME280;17871;31.584;74.450;2023-07-13T07:38:01;97559.63;;;38.22;66.71
31239;BME280;17871;31.584;74.450;2023-07-13T07:40:31;97569.38;;;38.00;66.44
31239;BME280;17871;31.584;74.450;2023-07-13T07:43:21;97561.75;;;38.26;66.45
31239;BME280;17871;31.584;74.450;2023-07-13T07:45:57;97577.53;;;37.99;66.38
31239;BME280;17871;31.584;74.450;2023-07-13T07:48:36;97569.06;;;37.95;67.22
31239;BME280;17871;31.584;74.450;2023-07-13T07:51:05;97554.44;;;38.20;66.03
31239;BME280;17871;31.584;74.450;2023-07-13T07:53:38;97551.56;;;38.45;67.54
31239;BME280;17871;31.584;74.450;2023-07-13T07:56:11;97552.84;;;38.49;65.98
31239;BME280;17871;31.584;74.450;2023-07-13T07:58:45;97555.78;;;38.83;65.25
31239;BME280;17871;31.584;74.450;2023-07-13T08:01:19;97551.06;;;38.70;65.74
31239;BME280;17871;31.584;74.450;2023-07-13T08:03:54;97554.06;;;38.46;64.79
31239;BME280;17871;31.584;74.450;2023-07-13T08:06:29;97551.66;;;38.51;65.92
31239;BME280;17871;31.584;74.450;2023-07-13T08:09:12;97544.78;;;38.34;64.73
31239;BME280;17871;31.584;74.450;2023-07-13T08:11:47;97542.03;;;38.13;66.75
31239;BME280;17871;31.584;74.450;2023-07-13T08:14:19;97534.22;;;38.84;66.44
31239;BME280;17871;31.584;74.450;2023-07-13T08:16:48;97530.25;;;38.80;67.13
31239;BME280;17871;31.584;74.450;2023-07-13T08:19:17;97523.16;;;38.73;64.57
31239;BME280;17871;31.584;74.450;2023-07-13T08:21:46;97523.56;;;39.06;65.99
31239;BME280;17871;31.584;74.450;2023-07-13T08:24:17;97526.28;;;39.27;64.73
31239;BME280;17871;31.584;74.450;2023-07-13T08:26:46;97533.69;;;39.25;64.68
31239;BME280;17871;31.584;74.450;2023-07-13T08:29:16;97529.22;;;39.32;63.56
31239;BME280;17871;31.584;74.450;2023-07-13T08:31:44;97533.03;;;38.72;65.11
31239;BME280;17871;31.584;74.450;2023-07-13T08:34:14;97518.56;;;37.94;65.26
31239;BME280;17871;31.584;74.450;2023-07-13T08:36:44;97517.28;;;38.19;68.41
31239;BME280;17871;31.584;74.450;2023-07-13T08:39:13;97510.47;;;38.16;70.37
31239;BME280;17871;31.584;74.450;2023-07-13T08:41:45;97504.13;;;38.32;66.52
31239;BME280;17871;31.584;74.450;2023-07-13T08:44:30;97501.91;;;38.50;64.34
31239;BME280;17871;31.584;74.450;2023-07-13T08:47:07;97490.84;;;38.09;68.79
31239;BME280;17871;31.584;74.450;2023-07-13T08:49:38;97491.78;;;37.64;67.14
31239;BME280;17871;31.584;74.450;2023-07-13T08:52:36;97489.81;;;37.58;67.05
31239;BME280;17871;31.584;74.450;2023-07-13T08:55:20;97483.13;;;37.62;67.60
31239;BME280;17871;31.584;74.450;2023-07-13T08:58:00;97478.44;;;38.02;67.37
31239;BME280;17871;31.584;74.450;2023-07-13T09:00:43;97472.97;;;37.80;67.91
31239;BME280;17871;31.584;74.450;2023-07-13T09:03:22;97471.66;;;37.76;66.66
31239;BME280;17871;31.584;74.450;2023-07-13T09:05:59;97463.38;;;37.71;67.60
31239;BME280;17871;31.584;74.450;2023-07-13T09:08:46;97464.56;;;37.69;66.54
31239;BME280;17871;31.584;74.450;2023-07-13T09:17:04;97451.19;;;37.31;68.77
31239;BME280;17871;31.584;74.450;2023-07-13T09:19:39;97446.91;;;37.08;68.30
31239;BME280;17871;31.584;74.450;2023-07-13T09:22:15;97441.59;;;37.08;68.68
31239;BME280;17871;31.584;74.450;2023-07-13T09:24:54;97444.34;;;37.37;68.73
31239;BME280;17871;31.584;74.450;2023-07-13T09:27:34;97438.16;;;37.59;65.09
31239;BME280;17871;31.584;74.450;2023-07-13T09:32:34;97435.84;;;37.56;66.18
31239;BME280;17871;31.584;74.450;2023-07-13T09:35:11;97426.03;;;37.57;65.02
31239;BME280;17871;31.584;74.450;2023-07-13T09:37:44;97425.22;;;37.71;66.45
31239;BME280;17871;31.584;74.450;2023-07-13T09:40:38;97425.84;;;37.87;65.72
31239;BME280;17871;31.584;74.450;2023-07-13T09:43:14;97423.09;;;37.66;64.65
31239;BME280;17871;31.584;74.450;2023-07-13T09:45:46;97410.66;;;37.88;64.81
31239;BME280;17871;31.584;74.450;2023-07-13T09:48:17;97410.19;;;37.84;63.71
31239;BME280;17871;31.584;74.450;2023-07-13T09:50:46;97403.06;;;38.00;64.40
31239;BME280;17871;31.584;74.450;2023-07-13T09:53:19;97404.69;;;38.01;65.94
31239;BME280;17871;31.584;74.450;2023-07-13T09:55:49;97405.81;;;38.06;65.29
31239;BME280;17871;31.584;74.450;2023-07-13T09:58:22;97403.31;;;37.90;66.27
31239;BME280;17871;31.584;74.450;2023-07-13T10:01:05;97397.53;;;38.16;65.69
31239;BME280;17871;31.584;74.450;2023-07-13T10:03:37;97398.09;;;37.97;65.92
31239;BME280;17871;31.584;74.450;2023-07-13T10:06:20;97397.16;;;38.04;64.19
31239;BME280;17871;31.584;74.450;2023-07-13T10:08:56;97389.16;;;38.04;65.20
31239;BME280;17871;31.584;74.450;2023-07-13T10:11:27;97395.44;;;38.47;63.99
31239;BME280;17871;31.584;74.450;2023-07-13T10:14:18;97382.72;;;38.13;63.52
31239;BME280;17871;31.584;74.450;2023-07-13T10:16:56;97380.09;;;38.49;64.38
31239;BME280;17871;31.584;74.450;2023-07-13T10:19:32;97372.44;;;38.46;64.63
31239;BME280;17871;31.584;74.450;2023-07-13T10:22:20;97372.06;;;38.49;63.13
31239;BME280;17871;31.584;74.450;2023-07-13T10:24:59;97370.41;;;38.48;62.50
31239;BME280;17871;31.584;74.450;2023-07-13T10:28:09;97378.56;;;38.61;62.71
31239;BME280;17871;31.584;74.450;2023-07-13T10:31:01;97363.81;;;38.29;62.55
31239;BME280;17871;31.584;74.450;2023-07-13T10:34:12;97362.84;;;38.52;61.69
31239;BME280;17871;31.584;74.450;2023-07-13T10:37:05;97358.25;;;38.31;61.29
31239;BME280;17871;31.584;74.450;2023-07-13T10:40:01;97353.06;;;38.08;64.41
31239;BME280;17871;31.584;74.450;2023-07-13T10:42:59;97351.69;;;37.98;63.96
31239;BME280;17871;31.584;74.450;2023-07-13T10:45:54;97347.09;;;38.06;63.74
31239;BME280;17871;31.584;74.450;2023-07-13T10:48:46;97345.38;;;37.84;64.11
31239;BME280;17871;31.584;74.450;2023-07-13T10:51:38;97335.69;;;37.68;66.01
31239;BME280;17871;31.584;74.450;2023-07-13T10:54:32;97331.94;;;37.48;67.25
31239;BME280;17871;31.584;74.450;2023-07-13T10:57:22;97337.50;;;37.38;67.00
31239;BME280;17871;31.584;74.450;2023-07-13T11:00:16;97334.63;;;37.25;67.89
31239;BME280;17871;31.584;74.450;2023-07-13T11:03:14;97335.56;;;37.18;67.66
31239;BME280;17871;31.584;74.450;2023-07-13T11:06:28;97334.47;;;37.27;66.83
31239;BME280;17871;31.584;74.450;2023-07-13T11:09:38;97331.47;;;37.59;66.78
31239;BME280;17871;31.584;74.450;2023-07-13T11:15:48;97332.50;;;37.73;64.93
31239;BME280;17871;31.584;74.450;2023-07-13T11:18:37;97332.38;;;37.81;65.43
31239;BME280;17871;31.584;74.450;2023-07-13T11:21:26;97320.25;;;37.78;65.60
31239;BME280;17871;31.584;74.450;2023-07-13T11:24:22;97327.78;;;37.89;65.28
31239;BME280;17871;31.584;74.450;2023-07-13T11:27:35;97321.53;;;37.82;65.49
31239;BME280;17871;31.584;74.450;2023-07-13T11:36:16;97321.59;;;37.16;68.55
31239;BME280;17871;31.584;74.450;2023-07-13T11:42:16;97335.53;;;37.03;68.64
31239;BME280;17871;31.584;74.450;2023-07-13T11:45:20;97328.41;;;36.96;67.65
31239;BME280;17871;31.584;74.450;2023-07-13T11:48:29;97325.09;;;36.93;69.75
31239;BME280;17871;31.584;74.450;2023-07-13T11:51:29;97328.53;;;36.79;68.98
31239;BME280;17871;31.584;74.450;2023-07-13T11:54:31;97329.84;;;36.83;69.10
31239;BME280;17871;31.584;74.450;2023-07-13T11:57:03;97331.28;;;36.71;67.94
31239;BME280;17871;31.584;74.450;2023-07-13T11:59:40;97323.44;;;36.92;69.15
31239;BME280;17871;31.584;74.450;2023-07-13T12:02:18;97319.56;;;36.80;68.95
31239;BME280;17871;31.584;74.450;2023-07-13T12:04:52;97317.41;;;36.76;67.71
31239;BME280;17871;31.584;74.450;2023-07-13T12:07:20;97320.63;;;36.71;67.47
31239;BME280;17871;31.584;74.450;2023-07-13T12:09:50;97318.34;;;36.83;67.86
31239;BME280;17871;31.584;74.450;2023-07-13T12:12:21;97310.19;;;37.07;68.50
31239;BME280;17871;31.584;74.450;2023-07-13T12:14:52;97308.59;;;36.98;67.08
31239;BME280;17871;31.584;74.450;2023-07-13T12:17:24;97310.94;;;36.93;68.16
31239;BME280;17871;31.584;74.450;2023-07-13T12:19:57;97306.16;;;36.88;68.34
31239;BME280;17871;31.584;74.450;2023-07-13T12:22:29;97309.75;;;36.96;67.77
31239;BME280;17871;31.584;74.450;2023-07-13T12:25:01;97313.72;;;37.00;67.84
31239;BME280;17871;31.584;74.450;2023-07-13T12:27:32;97308.56;;;37.21;67.54
31239;BME280;17871;31.584;74.450;2023-07-13T12:30:05;97307.69;;;37.06;67.78
31239;BME280;17871;31.584;74.450;2023-07-13T12:32:34;97307.28;;;36.94;69.08
31239;BME280;17871;31.584;74.450;2023-07-13T12:35:17;97313.22;;;37.04;68.32
31239;BME280;17871;31.584;74.450;2023-07-13T12:37:51;97302.47;;;36.89;67.93
31239;BME280;17871;31.584;74.450;2023-07-13T12:40:27;97310.09;;;36.92;68.00
31239;BME280;17871;31.584;74.450;2023-07-13T12:42:58;97306.88;;;36.82;68.03
31239;BME280;17871;31.584;74.450;2023-07-13T12:45:27;97291.63;;;36.76;68.27
31239;BME280;17871;31.584;74.450;2023-07-13T12:48:17;97295.16;;;36.69;67.91
31239;BME280;17871;31.584;74.450;2023-07-13T12:51:22;97302.22;;;36.84;67.99
31239;BME280;17871;31.584;74.450;2023-07-13T12:54:18;97300.28;;;36.78;68.36
31239;BME280;17871;31.584;74.450;2023-07-13T12:56:52;97305.72;;;36.85;68.89
31239;BME280;17871;31.584;74.450;2023-07-13T12:59:23;97302.13;;;36.55;69.41
31239;BME280;17871;31.584;74.450;2023-07-13T13:01:54;97303.22;;;36.83;69.22
31239;BME280;17871;31.584;74.450;2023-07-13T13:04:23;97298.84;;;36.68;70.00
31239;BME280;17871;31.584;74.450;2023-07-13T13:07:04;97294.78;;;36.57;70.34
31239;BME280;17871;31.584;74.450;2023-07-13T13:09:37;97298.47;;;36.48;70.37
31239;BME280;17871;31.584;74.450;2023-07-13T13:12:07;97293.50;;;36.45;71.12
31239;BME280;17871;31.584;74.450;2023-07-13T13:14:36;97295.09;;;36.31;70.80
31239;BME280;17871;31.584;74.450;2023-07-13T13:17:21;97296.22;;;36.37;71.17
31239;BME280;17871;31.584;74.450;2023-07-13T13:20:21;97299.19;;;36.42;72.31
31239;BME280;17871;31.584;74.450;2023-07-13T13:22:51;97303.63;;;36.27;72.04
31239;BME280;17871;31.584;74.450;2023-07-13T13:25:20;97301.38;;;36.16;72.99
31239;BME280;17871;31.584;74.450;2023-07-13T13:27:51;97308.72;;;36.06;74.35
31239;BME280;17871;31.584;74.450;2023-07-13T13:30:20;97301.47;;;35.91;74.08
31239;BME280;17871;31.584;74.450;2023-07-13T13:32:50;97303.38;;;35.75;73.33
31239;BME280;17871;31.584;74.450;2023-07-13T13:35:20;97302.53;;;35.82;73.19
31239;BME280;17871;31.584;74.450;2023-07-13T13:37:49;97296.22;;;35.75;73.66
31239;BME280;17871;31.584;74.450;2023-07-13T13:40:21;97293.50;;;35.83;73.58
31239;BME280;17871;31.584;74.450;2023-07-13T13:42:51;97292.50;;;35.92;73.86
31239;BME280;17871;31.584;74.450;2023-07-13T13:45:21;97292.81;;;35.59;73.00
31239;BME280;17871;31.584;74.450;2023-07-13T13:47:50;97288.81;;;35.55;73.28